Time;durP1;ratioP1;P1;durP2;ratioP2;P2;SDS_P1;SDS_P2;PMS_P1;PMS_P2;Temp;Humidity;BMP_temperature;BMP_pressure;BME280_temperature;BME280_humidity;BME280_pressure;Samples;Min_cycle;Max_cycle;Signal;HPM_P1;HPM_P2
2021/09/03 00:18:02;;;;;;;12.55;8.48;;;;;;;;;;4510271;28;20100;-66
2021/09/03 00:20:28;;;;;;;11.80;8.27;;;;;;;;;;4220060;34;20464;-64
2021/09/03 00:22:54;;;;;;;11.60;8.18;;;;;;;;;;4211639;34;20675;-65
2021/09/03 00:25:20;;;;;;;12.13;8.15;;;;;;;;;;4205466;34;20129;-65
2021/09/03 00:27:46;;;;;;;13.85;8.10;;;;;;;;;;4206552;34;20105;-65
2021/09/03 00:30:12;;;;;;;17.15;8.90;;;;;;;;;;4193605;34;20138;-64
2021/09/03 00:32:38;;;;;;;10.00;7.85;;;;;;;;;;4193599;34;20525;-65
2021/09/03 00:35:05;;;;;;;12.43;8.18;;;;;;;;;;4193761;34;20509;-65
2021/09/03 00:37:31;;;;;;;9.52;7.22;;;;;;;;;;4206238;34;20116;-65
2021/09/03 00:39:57;;;;;;;9.73;7.68;;;;;;;;;;4206637;34;20201;-66
2021/09/03 00:42:23;;;;;;;11.02;7.75;;;;;;;;;;4206429;34;20592;-64
2021/09/03 00:44:49;;;;;;;13.95;8.10;;;;;;;;;;4192599;34;20148;-65
2021/09/03 00:47:15;;;;;;;12.43;8.50;;;;;;;;;;4193502;34;20596;-64
2021/09/03 00:49:40;;;;;;;10.23;8.10;;;;;;;;;;4206364;34;20553;-64
2021/09/03 00:52:07;;;;;;;17.23;8.95;;;;;;;;;;4206183;34;20549;-66
2021/09/03 00:54:33;;;;;;;11.55;8.07;;;;;;;;;;4193651;34;20113;-65
2021/09/03 00:56:59;;;;;;;9.75;8.00;;;;;;;;;;4206331;34;20113;-65
2021/09/03 00:59:25;;;;;;;10.55;8.32;;;;;;;;;;4193625;34;20129;-65
2021/09/03 01:01:51;;;;;;;14.95;8.48;;;;;;;;;;4193323;34;20197;-67
2021/09/03 01:04:17;;;;;;;11.60;8.77;;;;;;;;;;4193344;34;20566;-66
2021/09/03 01:06:43;;;;;;;11.57;8.20;;;;;;;;;;4205978;34;20217;-66
2021/09/03 01:09:09;;;;;;;10.80;7.85;;;;;;;;;;4206073;34;20501;-66
2021/09/03 01:11:35;;;;;;;10.43;8.38;;;;;;;;;;4206108;34;20221;-65
2021/09/03 01:14:01;;;;;;;11.90;8.85;;;;;;;;;;4206179;34;20567;-67
2021/09/03 01:16:27;;;;;;;13.30;8.27;;;;;;;;;;4205555;34;20113;-67
2021/09/03 01:18:53;;;;;;;11.15;8.18;;;;;;;;;;4205885;34;20118;-68
2021/09/03 01:21:19;;;;;;;12.15;8.52;;;;;;;;;;4193224;34;20106;-68
2021/09/03 01:23:45;;;;;;;12.80;8.15;;;;;;;;;;4192835;34;20533;-65
2021/09/03 01:26:11;;;;;;;10.35;7.78;;;;;;;;;;4205473;34;20220;-64
2021/09/03 01:28:37;;;;;;;11.55;8.55;;;;;;;;;;4193094;34;20133;-65
2021/09/03 01:31:04;;;;;;;14.27;8.02;;;;;;;;;;4206001;34;20109;-66
2021/09/03 01:33:30;;;;;;;11.38;7.82;;;;;;;;;;4181810;34;20086;-65
2021/09/03 01:35:56;;;;;;;13.20;7.90;;;;;;;;;;4192999;34;20266;-65
2021/09/03 01:38:22;;;;;;;13.48;7.90;;;;;;;;;;4205855;34;20113;-65
2021/09/03 01:40:48;;;;;;;13.38;8.90;;;;;;;;;;4205031;34;20125;-66
2021/09/03 01:43:14;;;;;;;11.25;8.65;;;;;;;;;;4192890;34;20225;-66
2021/09/03 01:45:40;;;;;;;11.38;8.50;;;;;;;;;;4205890;34;20133;-65
2021/09/03 01:48:06;;;;;;;11.00;8.38;;;;;;;;;;4205979;34;20192;-65
2021/09/03 01:50:32;;;;;;;12.10;8.60;;;;;;;;;;4193186;34;20113;-66
2021/09/03 01:52:58;;;;;;;11.98;8.63;;;;;;;;;;4206118;34;20133;-65
2021/09/03 01:55:24;;;;;;;14.32;8.82;;;;;;;;;;4205701;34;20227;-66
2021/09/03 01:57:50;;;;;;;12.18;8.88;;;;;;;;;;4192927;34;20125;-66
2021/09/03 02:00:16;;;;;;;12.23;8.95;;;;;;;;;;4205779;34;20113;-66
2021/09/03 02:02:42;;;;;;;12.10;7.95;;;;;;;;;;4205974;34;20109;-66
2021/09/03 02:05:09;;;;;;;16.08;8.68;;;;;;;;;;4192811;34;20606;-66
2021/09/03 02:07:35;;;;;;;11.88;7.95;;;;;;;;;;4205774;34;20133;-67
2021/09/03 02:10:05;;;;;;;16.52;9.57;;;;;;;;;;4193062;34;20152;-67
2021/09/03 02:12:31;;;;;;;12.55;8.65;;;;;;;;;;4205637;34;20538;-67
2021/09/03 02:14:57;;;;;;;12.93;8.57;;;;;;;;;;4205857;34;20192;-65
2021/09/03 02:17:23;;;;;;;12.00;9.45;;;;;;;;;;4180889;34;20217;-64
2021/09/03 02:19:49;;;;;;;15.18;8.93;;;;;;;;;;4205445;34;20137;-67
2021/09/03 02:22:14;;;;;;;13.13;9.60;;;;;;;;;;4192582;34;20170;-66
2021/09/03 02:24:40;;;;;;;11.90;8.98;;;;;;;;;;4205484;34;20578;-66
2021/09/03 02:27:06;;;;;;;13.48;9.13;;;;;;;;;;4205006;34;20121;-66
2021/09/03 02:29:32;;;;;;;13.77;9.20;;;;;;;;;;4192544;34;20560;-66
2021/09/03 02:31:58;;;;;;;11.68;8.13;;;;;;;;;;4205553;34;20136;-66
2021/09/03 02:34:24;;;;;;;13.80;8.85;;;;;;;;;;4205676;34;20224;-66
2021/09/03 02:36:50;;;;;;;14.73;9.63;;;;;;;;;;4205331;34;20101;-66
2021/09/03 02:39:16;;;;;;;13.30;9.52;;;;;;;;;;4192108;34;20138;-66
2021/09/03 02:41:43;;;;;;;22.05;10.15;;;;;;;;;;4205282;34;20117;-66
2021/09/03 02:44:09;;;;;;;17.40;10.32;;;;;;;;;;4205624;34;20515;-63
2021/09/03 02:46:47;;;;;;;14.93;9.93;;;;;;;;;;4205071;34;20213;-63
2021/09/03 02:49:13;;;;;;;13.23;9.18;;;;;;;;;;4191307;34;20091;-66
2021/09/03 02:51:39;;;;;;;14.80;10.23;;;;;;;;;;4192210;34;20162;-66
2021/09/03 02:54:05;;;;;;;15.30;9.68;;;;;;;;;;4205164;34;20465;-66
2021/09/03 02:56:31;;;;;;;15.00;9.85;;;;;;;;;;4204966;34;20122;-64
2021/09/03 02:58:57;;;;;;;18.35;10.80;;;;;;;;;;4192359;34;20130;-65
2021/09/03 03:01:23;;;;;;;14.57;10.23;;;;;;;;;;4204971;34;20118;-64
2021/09/03 03:03:48;;;;;;;18.85;10.13;;;;;;;;;;4192535;34;20473;-64
2021/09/03 03:06:14;;;;;;;13.20;9.57;;;;;;;;;;4192176;34;20150;-64
2021/09/03 03:08:40;;;;;;;16.70;9.60;;;;;;;;;;4204510;34;20122;-64
2021/09/03 03:11:06;;;;;;;14.98;9.93;;;;;;;;;;4203115;34;20197;-63
2021/09/03 03:13:32;;;;;;;15.23;9.13;;;;;;;;;;4190967;34;20129;-64
2021/09/03 03:15:58;;;;;;;13.95;8.82;;;;;;;;;;4203957;34;20144;-64
2021/09/03 03:18:24;;;;;;;17.15;9.88;;;;;;;;;;4204229;34;20518;-64
2021/09/03 03:20:50;;;;;;;26.62;10.15;;;;;;;;;;4180175;34;20153;-64
2021/09/03 03:23:16;;;;;;;28.45;10.38;;;;;;;;;;4204389;34;20133;-64
2021/09/03 03:25:42;;;;;;;19.40;9.80;;;;;;;;;;4204367;34;20121;-64
2021/09/03 03:28:08;;;;;;;23.17;8.93;;;;;;;;;;4192261;34;20184;-64
2021/09/03 03:30:35;;;;;;;17.95;8.77;;;;;;;;;;4205124;34;20140;-63
2021/09/03 03:33:01;;;;;;;27.65;8.73;;;;;;;;;;4169284;34;20101;-63
2021/09/03 03:35:27;;;;;;;22.00;8.80;;;;;;;;;;4191153;34;20129;-64
2021/09/03 03:37:53;;;;;;;13.82;8.88;;;;;;;;;;4180727;34;20106;-64
2021/09/03 03:40:19;;;;;;;23.52;9.52;;;;;;;;;;4203154;34;20106;-63
2021/09/03 03:42:45;;;;;;;15.85;9.70;;;;;;;;;;4191963;34;20123;-65
2021/09/03 03:45:11;;;;;;;16.52;8.85;;;;;;;;;;4192280;34;20328;-65
2021/09/03 03:47:37;;;;;;;13.32;8.90;;;;;;;;;;4191828;34;20122;-66
2021/09/03 03:50:06;;;;;;;17.85;8.95;;;;;;;;;;4204813;34;20122;-65
2021/09/03 03:52:32;;;;;;;15.10;8.25;;;;;;;;;;4192213;34;20196;-65
2021/09/03 03:54:58;;;;;;;19.12;8.05;;;;;;;;;;4204709;34;20501;-65
2021/09/03 03:57:24;;;;;;;12.85;8.55;;;;;;;;;;4191742;34;20137;-66
2021/09/03 03:59:50;;;;;;;15.95;8.50;;;;;;;;;;4192191;34;20082;-66
2021/09/03 04:02:16;;;;;;;12.45;8.40;;;;;;;;;;4205010;34;20137;-65
2021/09/03 04:04:42;;;;;;;17.60;8.95;;;;;;;;;;4204862;34;20114;-65
2021/09/03 04:07:08;;;;;;;17.12;8.32;;;;;;;;;;4191836;34;20134;-66
2021/09/03 04:09:34;;;;;;;13.52;8.98;;;;;;;;;;4190939;34;20616;-66
2021/09/03 04:12:00;;;;;;;10.32;8.30;;;;;;;;;;4204440;34;20205;-66
2021/09/03 04:14:26;;;;;;;12.30;8.07;;;;;;;;;;4204401;34;20148;-65
2021/09/03 04:16:52;;;;;;;15.07;8.40;;;;;;;;;;4204419;34;20450;-65
2021/09/03 04:19:53;;;;;;;33.50;8.85;;;;;;;;;;4190827;34;20186;-65
2021/09/03 04:23:04;;;;;;;13.48;8.40;;;;;;;;;;4195588;34;20196;-65
2021/09/03 04:25:30;;;;;;;14.63;8.90;;;;;;;;;;4191472;34;20456;-64
2021/09/03 04:27:56;;;;;;;14.55;8.65;;;;;;;;;;4191487;34;20106;-64
2021/09/03 04:30:22;;;;;;;11.77;7.45;;;;;;;;;;4204218;34;20297;-65
2021/09/03 04:32:48;;;;;;;12.23;8.48;;;;;;;;;;4204409;34;20533;-64
2021/09/03 04:35:14;;;;;;;13.30;9.20;;;;;;;;;;4191339;34;20117;-65
2021/09/03 04:37:46;;;;;;;15.90;8.93;;;;;;;;;;4204388;34;20129;-65
2021/09/03 04:40:13;;;;;;;10.45;7.85;;;;;;;;;;4204079;34;20552;-64
2021/09/03 04:42:39;;;;;;;18.73;8.48;;;;;;;;;;4203259;34;20102;-64
2021/09/03 04:45:06;;;;;;;13.85;8.90;;;;;;;;;;4204180;34;20197;-64
2021/09/03 04:47:32;;;;;;;17.20;8.73;;;;;;;;;;4191082;34;20102;-64
2021/09/03 04:49:57;;;;;;;15.07;9.40;;;;;;;;;;4204200;34;20125;-65
2021/09/03 04:52:23;;;;;;;15.10;8.25;;;;;;;;;;4206198;34;20121;-65
2021/09/03 04:54:49;;;;;;;12.73;7.37;;;;;;;;;;4193513;34;20223;-65
2021/09/03 04:57:15;;;;;;;11.25;8.35;;;;;;;;;;4206079;34;20144;-63
2021/09/03 04:59:41;;;;;;;14.52;8.43;;;;;;;;;;4206483;34;20145;-64
2021/09/03 05:02:07;;;;;;;13.57;8.85;;;;;;;;;;4206194;34;20132;-64
2021/09/03 05:04:33;;;;;;;10.23;8.13;;;;;;;;;;4206115;34;20126;-65
2021/09/03 05:06:59;;;;;;;18.10;8.48;;;;;;;;;;4203922;34;20225;-65
2021/09/03 05:09:25;;;;;;;14.90;8.93;;;;;;;;;;4206229;34;20153;-65
2021/09/03 05:11:51;;;;;;;13.65;8.90;;;;;;;;;;4193267;34;20205;-65
2021/09/03 05:14:19;;;;;;;15.60;8.70;;;;;;;;;;4206215;34;20121;-64
2021/09/03 05:16:45;;;;;;;12.02;8.73;;;;;;;;;;4205617;34;20114;-65
2021/09/03 05:19:11;;;;;;;14.07;9.45;;;;;;;;;;4206356;34;20106;-66
2021/09/03 05:21:38;;;;;;;15.77;9.88;;;;;;;;;;4192874;34;20120;-66
2021/09/03 05:24:04;;;;;;;12.37;9.88;;;;;;;;;;4206219;34;20106;-66
2021/09/03 05:26:30;;;;;;;14.75;9.63;;;;;;;;;;4198169;34;20518;-66
2021/09/03 05:28:56;;;;;;;12.85;9.05;;;;;;;;;;4192427;34;20532;-66
2021/09/03 05:31:22;;;;;;;15.45;9.90;;;;;;;;;;4192169;34;20117;-66
2021/09/03 05:33:48;;;;;;;17.02;11.35;;;;;;;;;;4192011;34;20209;-66
2021/09/03 05:36:14;;;;;;;12.48;9.32;;;;;;;;;;4191671;34;20153;-66
2021/09/03 05:38:40;;;;;;;13.25;9.50;;;;;;;;;;4179481;34;20122;-66
2021/09/03 05:41:07;;;;;;;13.38;10.02;;;;;;;;;;4179081;34;20136;-66
2021/09/03 05:43:33;;;;;;;12.48;9.98;;;;;;;;;;4179323;34;20109;-66
2021/09/03 05:46:00;;;;;;;12.18;9.13;;;;;;;;;;4177365;34;20185;-66
2021/09/03 05:48:27;;;;;;;12.57;8.77;;;;;;;;;;4191581;34;20650;-67
2021/09/03 05:50:55;;;;;;;11.48;8.40;;;;;;;;;;4190868;34;20181;-66
2021/09/03 05:53:21;;;;;;;13.00;8.93;;;;;;;;;;4192174;34;20114;-66
2021/09/03 05:55:47;;;;;;;11.57;8.43;;;;;;;;;;4191698;34;20478;-66
2021/09/03 05:58:14;;;;;;;11.27;7.72;;;;;;;;;;4205349;34;20129;-66
2021/09/03 06:00:40;;;;;;;9.75;7.00;;;;;;;;;;4205770;34;20123;-66
2021/09/03 06:03:10;;;;;;;11.05;6.40;;;;;;;;;;4192250;34;20237;-66
2021/09/03 06:05:38;;;;;;;9.73;6.45;;;;;;;;;;4201951;34;20118;-66
2021/09/03 06:08:04;;;;;;;9.32;6.93;;;;;;;;;;4192061;34;20537;-66
2021/09/03 06:10:30;;;;;;;10.45;7.25;;;;;;;;;;4208492;34;20212;-66
2021/09/03 06:12:56;;;;;;;11.82;7.07;;;;;;;;;;4185859;34;20107;-66
2021/09/03 06:15:24;;;;;;;10.20;7.05;;;;;;;;;;4185836;34;20155;-65
2021/09/03 06:17:51;;;;;;;10.63;6.53;;;;;;;;;;4204670;34;20101;-65
2021/09/03 06:20:18;;;;;;;9.05;6.82;;;;;;;;;;4205602;34;20469;-65
2021/09/03 06:22:44;;;;;;;64.78;16.12;;;;;;;;;;4205195;34;20118;-65
2021/09/03 06:25:14;;;;;;;12.63;7.72;;;;;;;;;;4196321;34;20137;-64
2021/09/03 06:27:42;;;;;;;55.30;12.82;;;;;;;;;;4191145;34;20121;-64
2021/09/03 06:30:09;;;;;;;11.10;7.37;;;;;;;;;;4179182;34;20138;-65
2021/09/03 06:32:42;;;;;;;141.62;18.73;;;;;;;;;;4194363;34;20129;-64
2021/09/03 06:35:09;;;;;;;12.80;8.18;;;;;;;;;;4205395;34;20121;-65
2021/09/03 06:37:36;;;;;;;75.00;12.37;;;;;;;;;;4203613;34;20222;-65
2021/09/03 06:40:06;;;;;;;32.10;10.85;;;;;;;;;;4205194;34;20087;-66
2021/09/03 06:42:35;;;;;;;21.25;7.85;;;;;;;;;;4196742;34;20562;-66
2021/09/03 06:45:02;;;;;;;77.95;18.77;;;;;;;;;;4205323;34;20197;-65
2021/09/03 06:47:28;;;;;;;17.15;8.45;;;;;;;;;;4173101;34;20126;-65
2021/09/03 06:49:55;;;;;;;13.02;9.13;;;;;;;;;;4183952;34;20114;-66
2021/09/03 06:52:28;;;;;;;12.18;8.27;;;;;;;;;;4185473;34;20095;-65
2021/09/03 06:54:56;;;;;;;13.62;9.35;;;;;;;;;;4188541;34;20121;-65
2021/09/03 06:57:24;;;;;;;15.18;8.95;;;;;;;;;;4195294;34;20219;-65
2021/09/03 06:59:51;;;;;;;12.80;8.38;;;;;;;;;;4192186;34;20109;-65
2021/09/03 07:02:17;;;;;;;13.35;8.70;;;;;;;;;;4185624;34;20306;-65
2021/09/03 07:04:50;;;;;;;12.32;8.20;;;;;;;;;;4193242;34;20094;-68
2021/09/03 07:07:24;;;;;;;16.23;9.10;;;;;;;;;;4190012;34;20260;-66
2021/09/03 07:09:51;;;;;;;16.55;8.90;;;;;;;;;;4191732;34;20592;-66
2021/09/03 07:12:17;;;;;;;11.23;7.90;;;;;;;;;;4192021;34;20114;-66
2021/09/03 07:14:44;;;;;;;13.13;9.05;;;;;;;;;;4204756;34;20117;-66
2021/09/03 07:17:10;;;;;;;12.32;8.63;;;;;;;;;;4204512;34;20587;-66
2021/09/03 07:19:36;;;;;;;15.85;7.57;;;;;;;;;;4192423;34;20528;-66
2021/09/03 07:22:03;;;;;;;11.32;8.50;;;;;;;;;;4204983;34;20116;-65
2021/09/03 07:24:29;;;;;;;11.05;8.20;;;;;;;;;;4204782;34;20114;-66
2021/09/03 07:26:56;;;;;;;14.10;8.95;;;;;;;;;;4180596;34;20185;-65
2021/09/03 07:29:21;;;;;;;12.57;8.45;;;;;;;;;;4204845;34;20220;-66
2021/09/03 07:31:47;;;;;;;12.37;8.02;;;;;;;;;;4204689;34;20151;-66
2021/09/03 07:34:13;;;;;;;13.55;8.32;;;;;;;;;;4204761;34;20134;-66
2021/09/03 07:36:39;;;;;;;12.30;8.30;;;;;;;;;;4204532;34;20118;-65
2021/09/03 07:39:05;;;;;;;10.52;7.62;;;;;;;;;;4180776;34;20159;-65
2021/09/03 07:41:31;;;;;;;12.13;6.95;;;;;;;;;;4204756;34;20126;-66
2021/09/03 07:43:57;;;;;;;12.13;8.18;;;;;;;;;;4204727;34;20542;-65
2021/09/03 07:46:23;;;;;;;9.50;8.18;;;;;;;;;;4204592;34;20126;-65
2021/09/03 07:48:50;;;;;;;10.70;7.90;;;;;;;;;;4204840;34;20543;-65
2021/09/03 07:51:16;;;;;;;10.27;7.15;;;;;;;;;;4204701;34;20125;-65
2021/09/03 07:53:42;;;;;;;9.80;6.70;;;;;;;;;;4204548;34;20113;-65
2021/09/03 07:56:09;;;;;;;9.35;8.00;;;;;;;;;;4204686;34;20121;-65
2021/09/03 07:58:35;;;;;;;10.02;7.93;;;;;;;;;;4204420;34;20538;-65
2021/09/03 08:01:02;;;;;;;9.70;8.13;;;;;;;;;;4204800;34;20094;-65
2021/09/03 08:03:28;;;;;;;11.07;8.35;;;;;;;;;;4191624;34;20109;-65
2021/09/03 08:05:54;;;;;;;10.40;8.30;;;;;;;;;;4204170;34;20228;-65
2021/09/03 08:08:22;;;;;;;10.15;8.35;;;;;;;;;;4191224;34;20597;-65
2021/09/03 08:10:48;;;;;;;10.35;8.32;;;;;;;;;;4204403;34;20541;-65
2021/09/03 08:13:15;;;;;;;9.00;6.62;;;;;;;;;;4186762;34;20137;-65
2021/09/03 08:15:41;;;;;;;10.35;7.78;;;;;;;;;;4190047;34;20136;-66
2021/09/03 08:18:08;;;;;;;10.90;8.38;;;;;;;;;;4184860;34;20114;-64
2021/09/03 08:20:34;;;;;;;12.25;8.93;;;;;;;;;;4204251;34;20117;-66
2021/09/03 08:23:01;;;;;;;13.70;8.07;;;;;;;;;;4182530;34;20511;-65
2021/09/03 08:25:27;;;;;;;10.70;7.55;;;;;;;;;;4178205;34;20106;-64
2021/09/03 08:27:53;;;;;;;9.98;7.97;;;;;;;;;;4192458;34;20232;-64
2021/09/03 08:30:19;;;;;;;8.30;6.75;;;;;;;;;;4194069;34;20645;-64
2021/09/03 08:32:45;;;;;;;8.43;5.97;;;;;;;;;;4193326;34;20209;-65
2021/09/03 08:35:11;;;;;;;8.13;6.00;;;;;;;;;;4206336;34;20115;-64
2021/09/03 08:37:40;;;;;;;6.55;5.62;;;;;;;;;;4205437;34;20090;-66
2021/09/03 08:40:07;;;;;;;8.00;6.18;;;;;;;;;;4206495;34;20117;-67
2021/09/03 08:42:33;;;;;;;7.12;5.55;;;;;;;;;;4206017;34;20122;-67
2021/09/03 08:45:01;;;;;;;7.30;5.50;;;;;;;;;;4193508;34;20125;-65
2021/09/03 08:47:42;;;;;;;6.93;5.45;;;;;;;;;;4191508;34;20137;-66
2021/09/03 08:50:11;;;;;;;6.37;5.20;;;;;;;;;;4170004;34;20495;-69
2021/09/03 08:52:39;;;;;;;7.20;5.70;;;;;;;;;;4190109;34;20140;-66
2021/09/03 08:55:06;;;;;;;6.70;4.62;;;;;;;;;;4181538;34;20531;-66
2021/09/03 08:57:32;;;;;;;7.07;5.05;;;;;;;;;;4205056;34;20204;-66
2021/09/03 09:00:01;;;;;;;5.60;4.07;;;;;;;;;;4206140;34;20133;-66
2021/09/03 09:02:43;;;;;;;6.55;4.80;;;;;;;;;;4204445;34;20114;-67
2021/09/03 09:05:09;;;;;;;6.53;5.03;;;;;;;;;;4181097;34;20541;-67
2021/09/03 09:07:35;;;;;;;7.60;4.50;;;;;;;;;;4193448;34;20108;-66
2021/09/03 09:10:05;;;;;;;6.57;4.93;;;;;;;;;;4182238;34;20117;-68
2021/09/03 09:12:33;;;;;;;7.18;5.68;;;;;;;;;;4192914;34;20538;-68
2021/09/03 09:15:03;;;;;;;7.43;4.90;;;;;;;;;;4193400;34;20106;-68
2021/09/03 09:17:33;;;;;;;9.18;5.45;;;;;;;;;;4193169;34;20142;-68
2021/09/03 09:20:00;;;;;;;8.20;5.40;;;;;;;;;;4205958;34;20543;-68
2021/09/03 09:22:26;;;;;;;8.45;5.18;;;;;;;;;;4192891;34;20209;-68
2021/09/03 09:24:56;;;;;;;6.65;5.35;;;;;;;;;;4193154;34;20132;-68
2021/09/03 09:27:33;;;;;;;8.70;6.00;;;;;;;;;;4181676;34;20220;-68
2021/09/03 09:30:00;;;;;;;12.18;5.12;;;;;;;;;;4206046;34;20116;-68
2021/09/03 09:32:26;;;;;;;8.90;5.12;;;;;;;;;;4181420;34;20125;-68
2021/09/03 09:34:54;;;;;;;9.20;4.50;;;;;;;;;;4193034;34;20184;-68
2021/09/03 09:37:24;;;;;;;8.27;5.10;;;;;;;;;;4193447;34;20193;-67
2021/09/03 09:39:57;;;;;;;6.68;4.32;;;;;;;;;;4181870;34;20136;-68
2021/09/03 09:42:28;;;;;;;4.35;2.90;;;;;;;;;;4193373;34;20126;-68
2021/09/03 09:45:03;;;;;;;6.82;3.72;;;;;;;;;;4193023;34;20117;-67
2021/09/03 09:47:37;;;;;;;7.00;4.60;;;;;;;;;;4193327;34;20549;-68
2021/09/03 09:50:28;;;;;;;7.22;4.93;;;;;;;;;;4205977;34;20189;-68
2021/09/03 09:53:07;;;;;;;6.05;4.45;;;;;;;;;;4193077;34;20121;-68
2021/09/03 09:55:33;;;;;;;6.87;4.25;;;;;;;;;;4205567;34;20581;-68
2021/09/03 09:57:59;;;;;;;4.32;2.60;;;;;;;;;;4181090;34;20110;-68
2021/09/03 10:00:27;;;;;;;4.25;3.10;;;;;;;;;;4181315;34;20117;-68
2021/09/03 10:02:53;;;;;;;2.97;1.80;;;;;;;;;;4181570;34;20105;-68
2021/09/03 10:05:19;;;;;;;2.33;1.67;;;;;;;;;;4191726;34;20108;-67
2021/09/03 10:07:47;;;;;;;2.97;1.67;;;;;;;;;;4192402;34;20125;-68
2021/09/03 10:10:16;;;;;;;1.58;1.20;;;;;;;;;;4181925;34;20193;-67
2021/09/03 10:12:42;;;;;;;7.12;1.62;;;;;;;;;;4192578;34;20122;-68
2021/09/03 10:15:10;;;;;;;1.40;1.30;;;;;;;;;;4192681;34;20117;-68
2021/09/03 10:17:36;;;;;;;1.30;1.20;;;;;;;;;;4175068;34;20225;-68
2021/09/03 10:20:03;;;;;;;1.40;1.30;;;;;;;;;;4209760;34;20125;-69
2021/09/03 10:22:40;;;;;;;1.58;1.40;;;;;;;;;;4169562;34;20126;-68
2021/09/03 10:25:08;;;;;;;1.50;1.40;;;;;;;;;;4192968;34;20102;-68
2021/09/03 10:27:34;;;;;;;1.98;1.35;;;;;;;;;;4205127;34;20256;-68
2021/09/03 10:30:13;;;;;;;1.25;1.15;;;;;;;;;;4192640;34;20109;-69
2021/09/03 10:32:40;;;;;;;1.75;1.58;;;;;;;;;;4192072;34;20125;-68
2021/09/03 10:35:32;;;;;;;1.83;1.30;;;;;;;;;;4181583;34;20179;-68
2021/09/03 10:37:59;;;;;;;1.42;1.20;;;;;;;;;;4187360;34;20109;-68
2021/09/03 10:40:26;;;;;;;1.20;1.10;;;;;;;;;;4191690;34;20133;-69
2021/09/03 10:42:56;;;;;;;1.00;1.00;;;;;;;;;;4191382;34;20514;-68
2021/09/03 10:45:30;;;;;;;2.17;1.10;;;;;;;;;;4191083;34;20129;-69
2021/09/03 10:48:08;;;;;;;3.28;1.20;;;;;;;;;;4178424;34;20126;-68
2021/09/03 10:50:38;;;;;;;1.17;1.10;;;;;;;;;;4191437;34;20124;-69
2021/09/03 10:53:07;;;;;;;1.10;1.10;;;;;;;;;;4193030;34;20098;-69
2021/09/03 10:56:08;;;;;;;1.83;1.50;;;;;;;;;;4191392;34;20213;-68
2021/09/03 10:58:50;;;;;;;1.40;1.30;;;;;;;;;;4185328;34;20112;-68
2021/09/03 11:01:26;;;;;;;1.87;1.70;;;;;;;;;;4193334;34;20117;-68
2021/09/03 11:04:06;;;;;;;1.40;1.30;;;;;;;;;;4201131;34;20110;-70
2021/09/03 11:06:32;;;;;;;1.40;1.30;;;;;;;;;;4194156;34;20485;-69
2021/09/03 11:09:16;;;;;;;1.52;1.20;;;;;;;;;;4204969;34;20470;-69
2021/09/03 11:11:49;;;;;;;1.40;1.30;;;;;;;;;;4197110;34;20121;-68
2021/09/03 11:14:28;;;;;;;2.15;1.50;;;;;;;;;;4178551;34;20094;-69
2021/09/03 11:16:58;;;;;;;1.00;1.00;;;;;;;;;;4178523;34;20133;-68
2021/09/03 11:19:38;;;;;;;1.45;1.33;;;;;;;;;;4193262;34;20105;-68
2021/09/03 11:22:11;;;;;;;1.85;1.40;;;;;;;;;;4204980;34;20506;-68
2021/09/03 11:25:02;;;;;;;1.73;1.20;;;;;;;;;;4192315;34;20114;-67
2021/09/03 11:27:30;;;;;;;1.45;1.35;;;;;;;;;;4204925;34;20274;-68
2021/09/03 11:29:57;;;;;;;2.05;1.30;;;;;;;;;;4192389;34;20110;-68
2021/09/03 11:32:42;;;;;;;1.27;1.17;;;;;;;;;;4192042;34;20217;-68
2021/09/03 11:35:12;;;;;;;1.40;1.30;;;;;;;;;;4192353;34;20281;-68
2021/09/03 11:37:40;;;;;;;1.42;1.33;;;;;;;;;;4182161;34;20655;-68
2021/09/03 11:40:09;;;;;;;1.87;1.52;;;;;;;;;;4191353;34;20214;-68
2021/09/03 11:42:37;;;;;;;1.70;1.60;;;;;;;;;;4190769;34;20226;-68
2021/09/03 11:45:06;;;;;;;1.62;1.50;;;;;;;;;;4178180;34;20541;-67
2021/09/03 11:47:40;;;;;;;2.53;1.50;;;;;;;;;;4190682;34;20141;-68
2021/09/03 11:50:11;;;;;;;1.40;1.30;;;;;;;;;;4167487;34;20214;-67
2021/09/03 11:52:38;;;;;;;1.40;1.30;;;;;;;;;;4177952;34;20097;-68
2021/09/03 11:55:05;;;;;;;1.45;1.35;;;;;;;;;;4178245;34;20487;-68
2021/09/03 11:57:57;;;;;;;1.70;1.52;;;;;;;;;;4166230;34;20122;-67
2021/09/03 12:00:27;;;;;;;1.83;1.50;;;;;;;;;;4178426;34;20130;-67
2021/09/03 12:02:54;;;;;;;2.22;1.77;;;;;;;;;;4168528;34;20117;-68
2021/09/03 12:05:21;;;;;;;1.60;1.50;;;;;;;;;;4180957;34;20112;-67
2021/09/03 12:08:07;;;;;;;2.28;1.92;;;;;;;;;;4177424;34;20114;-68
2021/09/03 12:10:40;;;;;;;3.90;1.70;;;;;;;;;;4190396;34;20508;-68
2021/09/03 12:13:13;;;;;;;4.87;1.80;;;;;;;;;;4177906;34;20109;-68
2021/09/03 12:15:39;;;;;;;1.55;1.45;;;;;;;;;;4190747;34;20205;-68
2021/09/03 12:18:19;;;;;;;3.65;1.90;;;;;;;;;;4177505;34;20106;-68
2021/09/03 12:20:59;;;;;;;1.92;1.60;;;;;;;;;;4178101;34;20120;-67
2021/09/03 12:23:25;;;;;;;2.40;1.85;;;;;;;;;;4190569;34;20478;-68
2021/09/03 12:25:59;;;;;;;1.62;1.52;;;;;;;;;;4177707;34;20526;-67
2021/09/03 12:28:26;;;;;;;1.27;1.23;;;;;;;;;;4167024;34;20133;-68
2021/09/03 12:30:52;;;;;;;1.90;1.70;;;;;;;;;;4178110;34;20105;-68
2021/09/03 12:33:21;;;;;;;1.00;1.00;;;;;;;;;;4190651;34;20275;-68
2021/09/03 12:35:48;;;;;;;2.12;1.75;;;;;;;;;;4190922;34;20229;-70
2021/09/03 12:38:14;;;;;;;2.03;1.70;;;;;;;;;;4185588;34;20573;-70
2021/09/03 12:40:41;;;;;;;3.30;1.80;;;;;;;;;;4195264;34;20188;-69
2021/09/03 12:43:17;;;;;;;2.65;1.73;;;;;;;;;;4189215;34;20090;-71
2021/09/03 12:45:47;;;;;;;2.72;1.70;;;;;;;;;;4180062;34;20190;-70
2021/09/03 12:48:15;;;;;;;3.62;2.28;;;;;;;;;;4182555;34;20522;-69
2021/09/03 12:50:45;;;;;;;2.05;1.80;;;;;;;;;;4189900;34;20125;-69
2021/09/03 12:53:19;;;;;;;2.30;1.87;;;;;;;;;;4190712;34;20117;-69
2021/09/03 12:55:49;;;;;;;2.25;1.70;;;;;;;;;;4191346;34;20101;-67
2021/09/03 12:58:18;;;;;;;4.78;1.80;;;;;;;;;;4191886;34;20114;-67
2021/09/03 13:00:44;;;;;;;1.60;1.50;;;;;;;;;;4191069;34;20133;-67
2021/09/03 13:03:10;;;;;;;2.20;1.80;;;;;;;;;;4191346;34;20112;-65
2021/09/03 13:05:36;;;;;;;2.80;1.55;;;;;;;;;;4199980;34;20141;-66
2021/09/03 13:08:05;;;;;;;1.92;1.73;;;;;;;;;;4177789;34;20117;-65
2021/09/03 13:10:31;;;;;;;2.12;1.80;;;;;;;;;;4189998;34;20107;-65
2021/09/03 13:12:57;;;;;;;2.78;1.60;;;;;;;;;;4192108;34;20122;-65
2021/09/03 13:15:23;;;;;;;3.67;1.77;;;;;;;;;;4192200;34;20132;-68
2021/09/03 13:17:50;;;;;;;3.30;2.05;;;;;;;;;;4199686;34;20117;-69
2021/09/03 13:20:17;;;;;;;1.80;1.70;;;;;;;;;;4192737;34;20118;-67
2021/09/03 13:22:43;;;;;;;2.53;1.70;;;;;;;;;;4205956;34;20622;-67
2021/09/03 13:25:10;;;;;;;2.35;1.70;;;;;;;;;;4206119;34;20516;-69
2021/09/03 13:27:36;;;;;;;2.28;1.62;;;;;;;;;;4205880;34;20114;-64
2021/09/03 13:30:01;;;;;;;1.77;1.67;;;;;;;;;;4193391;34;20129;-66
2021/09/03 13:32:28;;;;;;;2.20;1.75;;;;;;;;;;4205801;34;20113;-69
2021/09/03 13:34:53;;;;;;;1.90;1.75;;;;;;;;;;4206134;34;20213;-67
2021/09/03 13:37:20;;;;;;;3.47;2.50;;;;;;;;;;4205714;34;20109;-66
2021/09/03 13:39:46;;;;;;;2.35;1.75;;;;;;;;;;4205797;34;20133;-68
2021/09/03 13:42:15;;;;;;;1.85;1.75;;;;;;;;;;4193136;34;20443;-67
2021/09/03 13:44:41;;;;;;;2.60;2.05;;;;;;;;;;4181426;34;20141;-65
2021/09/03 13:47:10;;;;;;;6.37;2.08;;;;;;;;;;4191712;34;20277;-68
2021/09/03 13:49:36;;;;;;;1.60;1.48;;;;;;;;;;4193208;34;20134;-67
2021/09/03 13:52:03;;;;;;;1.67;1.50;;;;;;;;;;4205709;34;20137;-67
2021/09/03 13:54:29;;;;;;;1.75;1.50;;;;;;;;;;4205933;34;20127;-67
2021/09/03 13:56:55;;;;;;;3.87;1.70;;;;;;;;;;4205636;34;20530;-68
2021/09/03 13:59:26;;;;;;;4.68;2.05;;;;;;;;;;4192861;34;20124;-68
2021/09/03 14:01:52;;;;;;;3.72;2.33;;;;;;;;;;4205560;34;20130;-65
2021/09/03 14:04:18;;;;;;;3.08;2.33;;;;;;;;;;4205595;34;20560;-65
2021/09/03 14:06:44;;;;;;;3.87;2.10;;;;;;;;;;4205460;34;20541;-66
2021/09/03 14:09:09;;;;;;;3.72;2.80;;;;;;;;;;4205618;34;20148;-65
2021/09/03 14:11:37;;;;;;;4.12;2.05;;;;;;;;;;4205429;34;20094;-65
2021/09/03 14:14:03;;;;;;;2.40;2.08;;;;;;;;;;4192726;34;20218;-65
2021/09/03 14:16:28;;;;;;;2.92;1.80;;;;;;;;;;4205764;34;20550;-66
2021/09/03 14:18:55;;;;;;;2.45;1.60;;;;;;;;;;4205387;34;20117;-68
2021/09/03 14:21:21;;;;;;;2.55;1.90;;;;;;;;;;4205658;34;20228;-67
2021/09/03 14:23:47;;;;;;;2.10;1.75;;;;;;;;;;4204968;34;20121;-67
2021/09/03 14:26:13;;;;;;;2.62;1.80;;;;;;;;;;4192652;34;20137;-67
2021/09/03 14:28:39;;;;;;;2.45;2.00;;;;;;;;;;4181232;34;20141;-67
2021/09/03 14:31:12;;;;;;;2.92;2.45;;;;;;;;;;4205350;34;20121;-68
2021/09/03 14:33:45;;;;;;;2.10;1.90;;;;;;;;;;4205853;34;20545;-66
2021/09/03 14:36:11;;;;;;;3.00;1.90;;;;;;;;;;4205601;34;20500;-68
2021/09/03 14:38:37;;;;;;;9.75;2.58;;;;;;;;;;4205640;34;20102;-67
2021/09/03 14:41:02;;;;;;;2.67;2.10;;;;;;;;;;4192552;34;20468;-66
2021/09/03 14:43:28;;;;;;;2.70;2.17;;;;;;;;;;4205408;34;20133;-66
2021/09/03 14:45:57;;;;;;;3.10;2.35;;;;;;;;;;4205697;34;20520;-66
2021/09/03 14:48:24;;;;;;;6.35;4.47;;;;;;;;;;4192552;34;20133;-64
2021/09/03 14:50:50;;;;;;;3.85;2.50;;;;;;;;;;4192795;34;20305;-65
2021/09/03 14:53:19;;;;;;;2.85;2.05;;;;;;;;;;4192493;34;20236;-67
2021/09/03 14:55:50;;;;;;;3.33;2.90;;;;;;;;;;4204273;34;20105;-66
2021/09/03 14:58:16;;;;;;;2.53;2.22;;;;;;;;;;4192484;34;20117;-68